Time;durP1;ratioP1;P1;durP2;ratioP2;P2;SDS_P1;SDS_P2;PMS_P1;PMS_P2;Temp;Humidity;BMP_temperature;BMP_pressure;BME280_temperature;BME280_humidity;BME280_pressure;Samples;Min_cycle;Max_cycle;Signal;HPM_P1;HPM_P2
2022/03/05 00:08:13;;;;;;;47.97;21.30;;;;;;;3.28;60.20;100849.00;18307969;32;20160;-66
2022/03/05 00:18:18;;;;;;;33.78;16.83;;;;;;;3.23;60.17;100851.41;18307220;32;20115;-66
2022/03/05 00:28:21;;;;;;;36.72;17.42;;;;;;;3.26;58.91;100833.44;18308457;32;20105;-66
2022/03/05 00:38:26;;;;;;;37.25;19.08;;;;;;;3.22;59.24;100830.72;18306591;32;20185;-66
2022/03/05 00:48:29;;;;;;;39.00;19.00;;;;;;;3.17;59.54;100828.84;18306866;32;20140;-66
2022/03/05 00:58:34;;;;;;;38.30;20.40;;;;;;;2.92;60.58;100817.66;18306525;32;20109;-66
2022/03/05 01:08:37;;;;;;;53.50;21.02;;;;;;;2.61;61.94;100820.84;18306476;32;20077;-66
2022/03/05 01:18:41;;;;;;;42.80;20.75;;;;;;;3.13;59.32;100813.22;18305950;32;20102;-66
2022/03/05 01:28:45;;;;;;;44.40;21.17;;;;;;;2.49;62.04;100826.41;18305933;32;20104;-66
2022/03/05 01:38:49;;;;;;;44.20;21.75;;;;;;;2.41;62.95;100832.97;18305815;32;20129;-66
2022/03/05 01:48:53;;;;;;;45.20;23.40;;;;;;;2.69;61.90;100836.59;18305217;32;20370;-66
2022/03/05 01:58:57;;;;;;;43.97;21.70;;;;;;;2.66;62.10;100833.91;18304547;32;20332;-67
2022/03/05 02:09:01;;;;;;;45.03;20.52;;;;;;;2.92;61.34;100842.59;18305683;32;20102;-66
2022/03/05 02:19:05;;;;;;;38.05;19.80;;;;;;;2.70;62.53;100835.75;18305686;32;20171;-66
2022/03/05 02:29:10;;;;;;;40.88;21.62;;;;;;;2.36;63.15;100843.97;18304142;32;20162;-66
2022/03/05 02:39:13;;;;;;;45.28;22.37;;;;;;;2.28;63.23;100849.66;18303757;32;20113;-66
2022/03/05 02:49:18;;;;;;;41.20;22.13;;;;;;;2.34;62.69;100848.19;18303155;32;20097;-66
2022/03/05 02:59:25;;;;;;;46.22;22.70;;;;;;;2.39;62.86;100850.09;18302156;32;20089;-66
2022/03/05 03:09:30;;;;;;;45.08;21.05;;;;;;;2.28;64.18;100837.66;18302663;32;20105;-66
2022/03/05 03:19:33;;;;;;;37.90;19.85;;;;;;;2.48;62.54;100833.25;18301622;32;20711;-66
2022/03/05 03:29:38;;;;;;;42.85;19.05;;;;;;;2.26;63.14;100844.44;18302052;32;20094;-66
2022/03/05 03:39:41;;;;;;;42.20;18.50;;;;;;;1.98;63.98;100848.50;18300166;32;20112;-66
2022/03/05 03:49:45;;;;;;;43.95;19.55;;;;;;;2.23;63.10;100852.06;18299885;32;20475;-66
2022/03/05 03:59:51;;;;;;;40.28;20.30;;;;;;;2.23;63.61;100852.06;18299056;32;20120;-66
2022/03/05 04:09:56;;;;;;;39.50;18.20;;;;;;;2.18;63.03;100850.97;18298694;32;20106;-66
2022/03/05 04:19:59;;;;;;;34.95;18.62;;;;;;;2.34;63.15;100855.06;18307396;32;20108;-66
2022/03/05 04:30:04;;;;;;;36.42;18.77;;;;;;;2.13;63.87;100860.25;18307400;32;20078;-66
2022/03/05 04:40:10;;;;;;;36.38;17.48;;;;;;;2.29;64.14;100864.28;18307307;32;20108;-66
2022/03/05 04:50:15;;;;;;;35.92;17.10;;;;;;;2.31;64.56;100876.41;18306865;32;20112;-66
2022/03/05 05:00:19;;;;;;;37.63;18.90;;;;;;;2.19;64.13;100878.53;18307716;32;20124;-66
2022/03/05 05:10:23;;;;;;;43.90;22.00;;;;;;;2.32;63.39;100875.59;18306407;32;20127;-66
2022/03/05 05:20:26;;;;;;;36.17;18.52;;;;;;;2.58;63.06;100885.16;18306380;32;20097;-66
2022/03/05 05:30:31;;;;;;;37.92;18.77;;;;;;;2.16;64.90;100891.25;18277851;32;20149;-66
2022/03/05 05:40:35;;;;;;;42.50;17.90;;;;;;;2.45;64.64;100907.00;18242424;32;20378;-66
2022/03/05 05:50:42;;;;;;;41.70;17.42;;;;;;;2.52;64.69;100909.00;18241884;32;20148;-66
2022/03/05 06:00:45;;;;;;;41.72;17.33;;;;;;;2.98;63.35;100916.72;18241813;32;20108;-66
2022/03/05 06:10:51;;;;;;;30.58;15.35;;;;;;;3.43;62.04;100919.22;18239868;32;20375;-66
2022/03/05 06:20:54;;;;;;;36.72;17.10;;;;;;;3.17;63.12;100929.47;18237184;32;20097;-66
2022/03/05 06:30:59;;;;;;;36.47;17.23;;;;;;;3.36;62.32;100929.25;18241276;32;20111;-66
2022/03/05 06:41:02;;;;;;;32.05;16.87;;;;;;;3.32;62.42;100931.72;18239450;32;20112;-66
2022/03/05 06:51:07;;;;;;;35.08;16.40;;;;;;;3.27;63.72;100953.03;18239285;32;20086;-66
2022/03/05 07:01:10;;;;;;;32.10;16.10;;;;;;;3.79;61.37;100946.25;18238110;32;20156;-66
2022/03/05 07:11:16;;;;;;;34.13;18.08;;;;;;;3.82;61.93;100950.66;18237875;32;20182;-66
2022/03/05 07:21:19;;;;;;;36.80;17.70;;;;;;;4.64;59.15;100961.06;18232411;32;20106;-67
2022/03/05 07:31:24;;;;;;;36.20;17.15;;;;;;;4.93;56.77;100962.78;18236820;32;20519;-67
2022/03/05 07:41:27;;;;;;;35.38;16.95;;;;;;;4.88;55.80;100965.22;18234079;32;20488;-67
2022/03/05 07:51:33;;;;;;;32.28;17.50;;;;;;;5.35;54.96;100971.75;18242041;32;20145;-66
2022/03/05 08:01:36;;;;;;;29.40;13.07;;;;;;;5.65;53.25;100974.31;18244890;32;20090;-67
2022/03/05 08:11:46;;;;;;;25.35;13.38;;;;;;;5.75;52.13;100967.69;18244506;32;20109;-66
2022/03/05 08:21:50;;;;;;;25.02;12.43;;;;;;;6.05;50.56;100968.47;18244529;32;20101;-67
2022/03/05 08:31:54;;;;;;;22.23;11.60;;;;;;;5.94;50.44;100978.56;18244042;32;20110;-67
2022/03/05 08:41:57;;;;;;;22.45;10.93;;;;;;;6.24;47.70;100981.06;18243325;32;20090;-67
2022/03/05 08:52:02;;;;;;;17.08;8.95;;;;;;;6.67;45.49;100980.34;18241464;32;20094;-67
2022/03/05 09:02:05;;;;;;;23.87;10.45;;;;;;;6.75;43.57;100985.72;18241836;32;20159;-67
2022/03/05 09:12:11;;;;;;;24.33;10.45;;;;;;;6.87;42.31;100979.94;18242727;32;20336;-67
2022/03/05 09:22:14;;;;;;;21.90;10.07;;;;;;;7.94;40.34;100975.97;18242987;32;20102;-67
2022/03/05 09:32:19;;;;;;;21.62;8.98;;;;;;;8.04;39.41;100972.69;18242973;32;20090;-67
2022/03/05 09:42:22;;;;;;;18.00;7.95;;;;;;;8.88;37.71;100969.72;18242915;32;20153;-67
2022/03/05 09:52:27;;;;;;;15.93;7.30;;;;;;;10.62;34.49;100956.72;18242408;32;20090;-67
2022/03/05 10:02:30;;;;;;;15.93;8.30;;;;;;;10.61;33.45;100955.81;18242112;32;20394;-67
2022/03/05 10:12:36;;;;;;;15.23;7.68;;;;;;;13.06;29.49;100941.38;18242307;32;20091;-66
2022/03/05 10:22:39;;;;;;;16.70;8.90;;;;;;;10.58;31.50;100949.75;18240177;32;20097;-65
2022/03/05 10:32:43;;;;;;;16.42;8.20;;;;;;;10.45;32.43;100948.78;18239081;32;20144;-64
2022/03/05 10:42:48;;;;;;;16.60;7.72;;;;;;;11.22;31.64;100943.97;18240402;32;20144;-64
2022/03/05 10:52:54;;;;;;;16.80;9.40;;;;;;;11.21;32.00;100934.38;18239685;32;20098;-64
2022/03/05 11:03:00;;;;;;;15.68;7.18;;;;;;;10.37;32.26;100933.00;18239777;32;20109;-65
2022/03/05 11:13:05;;;;;;;34.92;8.75;;;;;;;10.29;32.23;100935.56;18235467;32;108614;-64
2022/03/05 11:23:09;;;;;;;13.02;6.68;;;;;;;10.52;32.26;100921.81;18241651;32;20094;-64
2022/03/05 11:33:14;;;;;;;10.00;4.55;;;;;;;9.60;32.88;100914.97;18246068;32;20972;-65
2022/03/05 11:43:20;;;;;;;13.93;5.43;;;;;;;8.82;31.54;100921.87;18245669;32;20090;-65
2022/03/05 11:53:25;;;;;;;12.37;5.28;;;;;;;9.22;30.81;100901.56;18245155;32;20115;-64
2022/03/05 12:03:42;;;;;;;13.23;5.82;;;;;;;9.79;32.11;100892.56;18244950;32;20090;-65
2022/03/05 12:13:48;;;;;;;12.55;5.43;;;;;;;9.73;30.75;100884.69;18244730;32;20091;-64
2022/03/05 12:23:51;;;;;;;20.25;8.57;;;;;;;10.30;31.21;100877.28;18244664;32;20106;-64
2022/03/05 12:33:56;;;;;;;13.88;5.82;;;;;;;9.33;32.16;100882.56;18243380;32;20132;-65
2022/03/05 12:43:59;;;;;;;14.00;6.45;;;;;;;8.30;34.29;100886.44;18244509;32;20110;-64
2022/03/05 12:54:05;;;;;;;12.80;5.75;;;;;;;8.58;34.23;100876.44;18245026;32;20094;-64
2022/03/05 13:04:08;;;;;;;12.73;6.03;;;;;;;9.41;33.02;100873.09;18243247;32;20150;-64
2022/03/05 13:14:13;;;;;;;12.15;5.65;;;;;;;9.50;31.59;100877.50;18244349;32;20097;-64
2022/03/05 13:24:18;;;;;;;16.05;6.65;;;;;;;9.34;32.10;100872.13;18242841;32;20102;-64
2022/03/05 13:34:23;;;;;;;16.15;7.03;;;;;;;9.01;32.82;100882.22;18242185;32;20106;-64
2022/03/05 13:44:30;;;;;;;14.45;6.85;;;;;;;9.03;33.79;100871.81;18238237;32;20680;-64
2022/03/05 13:54:37;;;;;;;15.43;6.12;;;;;;;8.85;33.40;100865.50;18242251;32;20426;-64
2022/03/05 14:05:08;;;;;;;25.35;11.98;;;;;;;9.25;32.72;100849.47;18241969;32;20094;-64
2022/03/05 14:15:13;;;;;;;15.57;7.62;;;;;;;9.02;33.98;100857.03;18230901;32;20104;-64
2022/03/05 14:25:20;;;;;;;20.83;9.65;;;;;;;9.13;33.92;100857.16;18241037;32;20107;-64
2022/03/05 14:35:26;;;;;;;26.08;14.40;;;;;;;8.98;33.60;100850.91;18241033;32;20175;-64
2022/03/05 14:45:29;;;;;;;17.95;7.90;;;;;;;8.96;34.52;100850.03;18240554;32;20098;-64
2022/03/05 14:55:34;;;;;;;7.85;3.45;;;;;;;9.15;33.69;100847.63;18239059;32;20104;-64
2022/03/05 15:05:41;;;;;;;13.55;4.40;;;;;;;8.02;32.39;100860.00;18239460;32;20106;-64
2022/03/05 15:15:45;;;;;;;8.60;3.80;;;;;;;8.61;31.80;100850.44;18238860;32;20434;-64
2022/03/05 15:25:49;;;;;;;12.15;3.72;;;;;;;7.99;32.02;100852.16;18238206;32;20185;-64
2022/03/05 15:35:53;;;;;;;6.78;3.12;;;;;;;7.61;33.29;100858.44;18236092;32;20411;-64
2022/03/05 15:45:58;;;;;;;7.37;3.33;;;;;;;7.53;33.39;100852.25;18235704;32;20101;-64
2022/03/05 15:56:04;;;;;;;7.70;3.37;;;;;;;7.15;33.66;100868.88;18237041;32;20113;-64
2022/03/05 16:06:08;;;;;;;7.60;3.10;;;;;;;7.66;33.21;100864.63;18237619;32;20094;-64
2022/03/05 16:16:13;;;;;;;14.82;3.72;;;;;;;7.68;32.93;100868.09;18245059;32;20102;-64
2022/03/05 16:26:16;;;;;;;10.63;4.78;;;;;;;7.03;34.14;100878.19;18245617;32;20221;-64
2022/03/05 16:36:22;;;;;;;10.73;4.53;;;;;;;6.57;35.24;100895.38;18244290;32;20086;-65
2022/03/05 16:46:31;;;;;;;11.80;4.22;;;;;;;6.26;35.71;100898.13;18244106;32;20090;-64
2022/03/05 16:56:36;;;;;;;23.92;13.25;;;;;;;6.58;35.16;100910.94;18243827;32;20086;-64
2022/03/05 17:06:39;;;;;;;14.10;6.60;;;;;;;6.82;34.95;100914.94;18243112;32;20090;-64
2022/03/05 17:16:44;;;;;;;10.52;4.22;;;;;;;6.25;36.12;100930.09;18243891;32;20133;-64
2022/03/05 17:26:47;;;;;;;12.88;4.93;;;;;;;6.40;36.30;100929.56;18242556;32;20117;-64
2022/03/05 17:36:52;;;;;;;15.25;6.00;;;;;;;6.66;35.68;100937.94;18243035;32;20099;-64
2022/03/05 17:46:59;;;;;;;12.65;5.85;;;;;;;6.49;36.10;100936.69;18242554;32;20438;-64
2022/03/05 17:57:04;;;;;;;14.15;6.60;;;;;;;6.14;37.07;100947.97;18242477;32;20089;-64
2022/03/05 18:07:07;;;;;;;24.85;12.75;;;;;;;6.68;35.79;100947.47;18241633;32;20128;-64
2022/03/05 18:17:12;;;;;;;19.37;10.68;;;;;;;6.61;36.20;100965.53;18241438;32;20168;-65
2022/03/05 18:27:15;;;;;;;14.20;6.55;;;;;;;6.68;36.53;100960.47;18240767;32;20112;-66
2022/03/05 18:37:20;;;;;;;17.25;9.38;;;;;;;6.61;36.44;100965.53;18239834;32;20449;-66
2022/03/05 18:47:23;;;;;;;26.55;12.70;;;;;;;6.75;37.36;100972.72;18240983;32;20114;-66
2022/03/05 18:57:28;;;;;;;13.20;7.15;;;;;;;6.76;37.54;100985.75;18240997;32;20090;-66
2022/03/05 19:07:31;;;;;;;24.05;11.80;;;;;;;6.49;37.59;100992.03;18239605;32;20120;-66
2022/03/05 19:17:36;;;;;;;13.65;6.53;;;;;;;6.42;39.02;100999.66;18239001;32;20089;-66
2022/03/05 19:27:40;;;;;;;11.80;5.97;;;;;;;6.62;37.70;101007.88;18238478;32;20098;-66
2022/03/05 19:37:44;;;;;;;13.77;6.68;;;;;;;6.22;38.21;101024.22;18237926;32;20465;-69
2022/03/05 19:47:48;;;;;;;18.40;9.02;;;;;;;6.57;37.57;101027.69;18243577;32;20485;-68
2022/03/05 19:57:52;;;;;;;22.10;10.13;;;;;;;6.27;40.48;101034.72;18245356;32;20105;-68
2022/03/05 20:07:56;;;;;;;19.12;10.48;;;;;;;5.95;40.91;101043.34;18245175;32;20134;-68
2022/03/05 20:18:00;;;;;;;20.80;9.57;;;;;;;5.97;41.60;101041.72;18244615;32;20094;-68
2022/03/05 20:28:04;;;;;;;22.75;7.80;;;;;;;5.83;41.76;101045.62;18243876;32;20094;-68
2022/03/05 20:38:09;;;;;;;14.77;7.35;;;;;;;6.27;39.76;101037.31;18244499;32;20086;-68
2022/03/05 20:48:12;;;;;;;18.42;8.88;;;;;;;6.30;38.97;101049.47;18243929;32;20094;-68
2022/03/05 20:58:17;;;;;;;15.02;7.70;;;;;;;6.05;41.79;101064.37;18242961;32;20431;-68
2022/03/05 21:08:20;;;;;;;18.52;9.32;;;;;;;6.04;40.25;101060.94;18243252;32;20473;-68
2022/03/05 21:18:24;;;;;;;29.63;13.48;;;;;;;6.02;40.34;101072.94;18243790;32;20120;-68
2022/03/05 21:28:28;;;;;;;23.55;10.82;;;;;;;5.74;41.09;101084.22;18242794;32;20102;-68
2022/03/05 21:38:32;;;;;;;41.17;18.23;;;;;;;5.63;41.56;101074.44;18243353;32;20097;-68
2022/03/05 21:48:36;;;;;;;47.92;20.60;;;;;;;5.68;41.78;101075.44;18242356;32;20144;-68
2022/03/05 21:58:41;;;;;;;51.10;21.02;;;;;;;5.38;42.54;101065.94;18242122;32;20102;-68
2022/03/05 22:08:44;;;;;;;32.38;16.35;;;;;;;5.38;42.46;101067.66;18240939;32;20113;-68
2022/03/05 22:18:49;;;;;;;17.17;9.10;;;;;;;5.33;42.13;101066.63;18209916;32;20090;-68
2022/03/05 22:28:52;;;;;;;17.95;8.65;;;;;;;4.93;43.68;101058.50;18240328;32;20090;-68
2022/03/05 22:38:57;;;;;;;13.95;6.62;;;;;;;5.01;42.87;101051.88;18237871;32;20093;-68
2022/03/05 22:49:00;;;;;;;13.43;6.10;;;;;;;5.07;42.68;101049.47;18234716;32;20093;-68
2022/03/05 22:59:04;;;;;;;13.95;6.47;;;;;;;4.74;43.10;101046.72;18239817;32;20105;-68
2022/03/05 23:19:30;;;;;;;18.67;8.52;;;;;;;4.92;42.24;101034.38;18248733;32;20090;-66
2022/03/05 23:29:33;;;;;;;12.18;6.15;;;;;;;4.68;42.47;101031.88;18259593;32;20094;-66
2022/03/05 23:39:37;;;;;;;13.55;5.90;;;;;;;4.72;42.22;101018.19;18259132;32;20117;-66
2022/03/05 23:49:41;;;;;;;13.48;7.32;;;;;;;4.66;42.03;101012.84;18258231;32;20089;-66
2022/03/05 23:59:45;;;;;;;15.88;8.20;;;;;;;4.27;42.91;101003.84;18257937;32;20121;-66
